createdAt,value
2023-01-03T00:00:28.514Z,5.67
2023-01-03T00:01:28.388Z,5.65
2023-01-03T00:02:28.516Z,5.63
2023-01-03T00:03:28.358Z,5.62
2023-01-03T00:04:28.401Z,5.59
2023-01-03T00:05:28.337Z,5.60
2023-01-03T00:06:28.325Z,5.59
2023-01-03T00:07:28.317Z,5.56
2023-01-03T00:08:28.328Z,5.56
2023-01-03T00:09:28.293Z,5.59
2023-01-03T00:10:28.282Z,5.58
2023-01-03T00:11:28.274Z,5.49
2023-01-03T00:12:31.082Z,5.47
2023-01-03T00:13:28.253Z,5.41
2023-01-03T00:14:28.237Z,5.35
2023-01-03T00:15:28.238Z,5.32
2023-01-03T00:16:28.288Z,5.27
2023-01-03T00:17:28.211Z,5.35
2023-01-03T00:18:28.196Z,5.38
2023-01-03T00:19:28.184Z,5.38
2023-01-03T00:20:28.169Z,5.45
2023-01-03T00:21:28.166Z,5.47
2023-01-03T00:22:28.149Z,5.47
2023-01-03T00:23:28.144Z,5.45
2023-01-03T00:24:28.152Z,5.44
2023-01-03T00:25:28.132Z,5.44
2023-01-03T00:26:28.105Z,5.41
2023-01-03T00:27:28.093Z,5.37
2023-01-03T00:28:28.080Z,5.33
2023-01-03T00:29:28.088Z,5.29
2023-01-03T00:30:28.177Z,5.26
2023-01-03T00:31:28.116Z,5.29
2023-01-03T00:32:28.038Z,5.26
2023-01-03T00:33:28.028Z,5.23
2023-01-03T00:34:28.013Z,5.20
2023-01-03T00:35:28.007Z,5.17
2023-01-03T00:36:27.992Z,5.15
2023-01-03T00:37:27.988Z,5.20
2023-01-03T00:38:27.973Z,5.26
2023-01-03T00:39:27.974Z,5.27
2023-01-03T00:40:28.066Z,5.27
2023-01-03T00:41:27.937Z,5.35
2023-01-03T00:42:27.924Z,5.37
2023-01-03T00:43:27.919Z,5.38
2023-01-03T00:44:27.903Z,5.40
2023-01-03T00:45:31.015Z,5.41
2023-01-03T00:46:27.958Z,5.41
2023-01-03T00:47:27.875Z,5.42
2023-01-03T00:48:27.883Z,5.40
2023-01-03T00:49:27.853Z,5.38
2023-01-03T00:50:27.838Z,5.37
2023-01-03T00:51:27.824Z,5.40
2023-01-03T00:52:27.813Z,5.40
2023-01-03T00:53:27.802Z,5.41
2023-01-03T00:54:27.789Z,5.38
2023-01-03T00:55:27.785Z,5.47
2023-01-03T00:56:27.789Z,5.45
2023-01-03T00:57:27.759Z,5.42
2023-01-03T00:58:27.755Z,5.38
2023-01-03T00:59:27.743Z,5.35
2023-01-03T01:00:27.727Z,5.29
2023-01-03T01:01:27.825Z,5.23
2023-01-03T01:02:27.940Z,5.15
2023-01-03T01:03:27.964Z,5.12
2023-01-03T01:04:27.687Z,5.11
2023-01-03T01:05:27.872Z,5.08
2023-01-03T01:06:27.656Z,5.02
2023-01-03T01:07:27.650Z,4.96
2023-01-03T01:08:27.635Z,4.90
2023-01-03T01:09:27.625Z,4.93
2023-01-03T01:10:27.622Z,4.90
2023-01-03T01:11:27.626Z,4.84
2023-01-03T01:12:27.634Z,4.79
2023-01-03T01:13:27.583Z,4.79
2023-01-03T01:14:27.581Z,4.79
2023-01-03T01:15:27.559Z,4.77
2023-01-03T01:16:27.650Z,4.77
2023-01-03T01:17:27.535Z,4.72
2023-01-03T01:18:27.524Z,4.69
2023-01-03T01:19:27.532Z,4.67
2023-01-03T01:20:27.509Z,4.65
2023-01-03T01:21:27.510Z,4.65
2023-01-03T01:22:27.488Z,4.67
2023-01-03T01:23:27.471Z,4.62
2023-01-03T01:24:27.494Z,4.61
2023-01-03T01:25:27.453Z,4.59
2023-01-03T01:26:27.456Z,4.53
2023-01-03T01:27:27.427Z,4.54
2023-01-03T01:28:27.547Z,4.59
2023-01-03T01:29:27.408Z,4.64
2023-01-03T01:30:27.421Z,4.68
2023-01-03T01:31:27.500Z,4.67
2023-01-03T01:32:27.368Z,4.61
2023-01-03T01:33:27.400Z,4.62
2023-01-03T01:34:27.366Z,4.59
2023-01-03T01:35:27.365Z,4.62
2023-01-03T01:36:27.333Z,4.57
2023-01-03T01:37:27.323Z,4.53
2023-01-03T01:38:27.310Z,4.54
2023-01-03T01:39:27.299Z,4.61
2023-01-03T01:40:27.315Z,4.64
2023-01-03T01:41:27.279Z,4.67
2023-01-03T01:42:30.390Z,4.68
2023-01-03T01:43:27.257Z,4.68
2023-01-03T01:44:27.269Z,4.72
2023-01-03T01:45:27.235Z,4.72
2023-01-03T01:46:27.363Z,4.71
2023-01-03T01:47:27.218Z,4.72
2023-01-03T01:48:27.202Z,4.68
2023-01-03T01:49:27.191Z,4.69
2023-01-03T01:50:27.182Z,4.65
2023-01-03T01:51:27.169Z,4.65
2023-01-03T01:52:27.159Z,4.61
2023-01-03T01:53:27.145Z,4.56
2023-01-03T01:54:27.132Z,4.53
2023-01-03T01:55:27.134Z,4.49
2023-01-03T01:56:27.116Z,4.53
2023-01-03T01:57:27.107Z,4.59
2023-01-03T01:58:27.100Z,4.61
2023-01-03T01:59:27.083Z,4.61
2023-01-03T02:00:27.098Z,4.61
2023-01-03T02:01:27.208Z,4.64
2023-01-03T02:02:27.312Z,4.64
2023-01-03T02:03:27.117Z,4.69
2023-01-03T02:04:27.047Z,4.68
2023-01-03T02:05:27.019Z,4.65
2023-01-03T02:06:27.037Z,4.67
2023-01-03T02:07:26.999Z,4.68
2023-01-03T02:08:26.981Z,4.67
2023-01-03T02:09:26.979Z,4.67
2023-01-03T02:10:26.970Z,4.68
2023-01-03T02:11:26.953Z,4.67
2023-01-03T02:12:26.959Z,4.71
2023-01-03T02:13:26.943Z,4.72
2023-01-03T02:14:26.929Z,4.69
2023-01-03T02:15:26.908Z,4.62
2023-01-03T02:16:27.133Z,4.59
2023-01-03T02:17:26.885Z,4.56
2023-01-03T02:18:26.888Z,4.59
2023-01-03T02:19:26.885Z,4.62
2023-01-03T02:20:26.856Z,4.62
2023-01-03T02:21:26.854Z,4.62
2023-01-03T02:22:26.846Z,4.62
2023-01-03T02:23:26.827Z,4.61
2023-01-03T02:24:26.834Z,4.62
2023-01-03T02:25:26.823Z,4.59
2023-01-03T02:26:26.820Z,4.53
2023-01-03T02:27:26.823Z,4.49
2023-01-03T02:28:26.813Z,4.51
2023-01-03T02:29:26.782Z,4.56
2023-01-03T02:30:26.765Z,4.59
2023-01-03T02:31:26.790Z,4.54
2023-01-03T02:32:26.760Z,4.57
2023-01-03T02:33:26.716Z,4.62
2023-01-03T02:34:26.706Z,4.59
2023-01-03T02:35:26.695Z,4.57
2023-01-03T02:36:26.687Z,4.54
2023-01-03T02:37:26.672Z,4.50
2023-01-03T02:38:26.662Z,4.44
2023-01-03T02:39:26.658Z,4.38
2023-01-03T02:40:26.648Z,4.34
2023-01-03T02:41:26.629Z,4.32
2023-01-03T02:42:26.631Z,4.31
2023-01-03T02:43:26.606Z,4.26
2023-01-03T02:44:26.597Z,4.24
2023-01-03T02:45:26.588Z,4.26
2023-01-03T02:46:26.648Z,4.26
2023-01-03T02:47:26.570Z,4.28
2023-01-03T02:48:26.591Z,4.21
2023-01-03T02:49:26.553Z,4.18
2023-01-03T02:50:26.547Z,4.21
2023-01-03T02:51:26.549Z,4.28
2023-01-03T02:52:26.534Z,4.42
2023-01-03T02:53:26.504Z,4.36
2023-01-03T02:54:26.518Z,4.31
2023-01-03T02:55:26.540Z,4.21
2023-01-03T02:56:26.510Z,4.20
2023-01-03T02:57:26.492Z,4.13
2023-01-03T02:58:26.481Z,4.14
2023-01-03T02:59:26.443Z,4.16
2023-01-03T03:00:26.434Z,4.14
2023-01-03T03:01:26.587Z,4.10
2023-01-03T03:02:26.547Z,4.08
2023-01-03T03:03:26.439Z,4.11
2023-01-03T03:04:26.478Z,4.08
2023-01-03T03:05:26.371Z,4.08
2023-01-03T03:06:26.385Z,4.16
2023-01-03T03:07:26.364Z,4.18
2023-01-03T03:08:26.341Z,4.26
2023-01-03T03:09:26.321Z,4.26
2023-01-03T03:10:26.327Z,4.26
2023-01-03T03:11:26.303Z,4.26
2023-01-03T03:12:26.289Z,4.26
2023-01-03T03:13:26.278Z,4.24
2023-01-03T03:14:26.270Z,4.17
2023-01-03T03:15:26.261Z,4.11
2023-01-03T03:16:26.325Z,4.02
2023-01-03T03:17:26.235Z,3.98
2023-01-03T03:18:26.221Z,3.98
2023-01-03T03:19:26.211Z,3.93
2023-01-03T03:20:26.225Z,3.99
2023-01-03T03:21:26.207Z,4.06
2023-01-03T03:22:26.179Z,4.06
2023-01-03T03:23:26.165Z,4.04
2023-01-03T03:24:26.164Z,4.02
2023-01-03T03:25:26.146Z,4.02
2023-01-03T03:26:26.134Z,3.98
2023-01-03T03:27:26.155Z,3.99
2023-01-03T03:28:26.114Z,3.93
2023-01-03T03:29:26.102Z,3.89
2023-01-03T03:30:26.089Z,3.82
2023-01-03T03:31:26.182Z,3.90
2023-01-03T03:32:26.066Z,3.92
2023-01-03T03:33:26.052Z,3.86
2023-01-03T03:34:26.047Z,3.81
2023-01-03T03:35:26.042Z,3.80
2023-01-03T03:36:26.051Z,3.77
2023-01-03T03:37:26.008Z,3.71
2023-01-03T03:38:26.007Z,3.67
2023-01-03T03:39:25.991Z,3.62
2023-01-03T03:40:25.982Z,3.63
2023-01-03T03:41:25.971Z,3.62
2023-01-03T03:42:25.961Z,3.57
2023-01-03T03:43:25.946Z,3.57
2023-01-03T03:44:25.937Z,3.54
2023-01-03T03:45:25.925Z,3.45
2023-01-03T03:46:25.925Z,3.37
2023-01-03T03:47:25.903Z,3.41
2023-01-03T03:48:25.894Z,3.42
2023-01-03T03:49:25.882Z,3.37
2023-01-03T03:50:25.870Z,3.33
2023-01-03T03:51:25.859Z,3.34
2023-01-03T03:52:25.875Z,3.33
2023-01-03T03:53:25.836Z,3.35
2023-01-03T03:54:25.827Z,3.35
2023-01-03T03:55:25.818Z,3.35
2023-01-03T03:56:25.803Z,3.33
2023-01-03T03:57:25.801Z,3.28
2023-01-03T03:58:25.784Z,3.26
2023-01-03T03:59:25.770Z,3.23
2023-01-03T04:00:25.764Z,3.19
2023-01-03T04:01:25.916Z,3.13
2023-01-03T04:02:25.947Z,3.10
2023-01-03T04:03:25.764Z,3.12
2023-01-03T04:04:25.723Z,3.17
2023-01-03T04:05:25.707Z,3.16
2023-01-03T04:06:25.698Z,3.12
2023-01-03T04:07:25.683Z,3.16
2023-01-03T04:08:25.813Z,3.12
2023-01-03T04:09:25.664Z,3.12
2023-01-03T04:10:25.652Z,3.10
2023-01-03T04:11:25.638Z,3.10
2023-01-03T04:12:25.632Z,3.13
2023-01-03T04:13:25.617Z,3.13
2023-01-03T04:14:25.644Z,3.10
2023-01-03T04:15:25.597Z,3.08
2023-01-03T04:16:25.659Z,3.04
2023-01-03T04:17:25.576Z,3.04
2023-01-03T04:18:25.578Z,3.05
2023-01-03T04:19:25.554Z,3.08
2023-01-03T04:20:25.548Z,3.12
2023-01-03T04:21:25.534Z,3.10
2023-01-03T04:22:25.552Z,3.07
2023-01-03T04:23:25.526Z,3.15
2023-01-03T04:24:25.526Z,3.10
2023-01-03T04:25:25.490Z,3.12
2023-01-03T04:26:25.479Z,3.15
2023-01-03T04:27:25.470Z,3.13
2023-01-03T04:28:25.463Z,3.16
2023-01-03T04:29:25.448Z,3.15
2023-01-03T04:30:25.437Z,3.12
2023-01-03T04:31:25.523Z,3.13
2023-01-03T04:32:25.421Z,3.19
2023-01-03T04:33:25.412Z,3.23
2023-01-03T04:34:25.395Z,3.22
2023-01-03T04:35:25.383Z,3.20
2023-01-03T04:36:25.373Z,3.19
2023-01-03T04:37:25.368Z,3.17
2023-01-03T04:38:25.350Z,3.12
2023-01-03T04:39:25.340Z,3.05
2023-01-03T04:40:25.351Z,2.99
2023-01-03T04:41:25.317Z,2.98
2023-01-03T04:42:25.311Z,2.94
2023-01-03T04:43:25.299Z,2.86
2023-01-03T04:44:25.283Z,2.81
2023-01-03T04:45:25.336Z,2.74
2023-01-03T04:46:25.383Z,2.65
2023-01-03T04:47:25.255Z,2.62
2023-01-03T04:48:25.247Z,2.63
2023-01-03T04:49:25.232Z,2.61
2023-01-03T04:50:25.225Z,2.58
2023-01-03T04:51:25.208Z,2.51
2023-01-03T04:52:25.200Z,2.45
2023-01-03T04:53:25.187Z,2.40
2023-01-03T04:54:25.180Z,2.41
2023-01-03T04:55:25.165Z,2.41
2023-01-03T04:56:25.178Z,2.37
2023-01-03T04:57:25.144Z,2.38
2023-01-03T04:58:25.136Z,2.32
2023-01-03T04:59:25.120Z,2.27
2023-01-03T05:00:25.147Z,2.25
2023-01-03T05:01:25.350Z,2.20
2023-01-03T05:02:25.277Z,2.19
2023-01-03T05:03:27.918Z,2.11
2023-01-03T05:04:25.105Z,2.14
2023-01-03T05:05:25.057Z,2.08
2023-01-03T05:06:25.043Z,2.09
2023-01-03T05:07:25.037Z,2.19
2023-01-03T05:08:25.031Z,2.19
2023-01-03T05:09:25.009Z,2.18
2023-01-03T05:10:25.002Z,2.19
2023-01-03T05:11:25.026Z,2.14
2023-01-03T05:12:25.016Z,2.05
2023-01-03T05:13:24.968Z,2.09
2023-01-03T05:14:24.962Z,2.07
2023-01-03T05:15:24.944Z,2.02
2023-01-03T05:16:24.975Z,2.02
2023-01-03T05:17:24.923Z,1.98
2023-01-03T05:18:24.920Z,1.90
2023-01-03T05:19:24.909Z,1.85
2023-01-03T05:20:24.889Z,1.75
2023-01-03T05:21:24.872Z,1.74
2023-01-03T05:22:24.864Z,1.79
2023-01-03T05:23:24.859Z,1.74
2023-01-03T05:24:24.870Z,1.71
2023-01-03T05:25:24.890Z,1.68
2023-01-03T05:26:24.820Z,1.65
2023-01-03T05:27:24.806Z,1.67
2023-01-03T05:28:24.820Z,1.63
2023-01-03T05:29:24.785Z,1.65
2023-01-03T05:30:24.779Z,1.67
2023-01-03T05:31:24.799Z,1.71
2023-01-03T05:32:24.821Z,1.71
2023-01-03T05:33:24.742Z,1.68
2023-01-03T05:34:24.731Z,1.71
2023-01-03T05:35:24.719Z,1.75
2023-01-03T05:36:24.709Z,1.81
2023-01-03T05:37:24.696Z,1.83
2023-01-03T05:38:24.685Z,1.83
2023-01-03T05:39:24.669Z,1.86
2023-01-03T05:40:24.665Z,1.88
2023-01-03T05:41:24.652Z,1.90
2023-01-03T05:42:24.643Z,1.90
2023-01-03T05:43:24.628Z,1.92
2023-01-03T05:44:24.661Z,2.02
2023-01-03T05:45:24.604Z,2.07
2023-01-03T05:46:24.648Z,2.07
2023-01-03T05:47:24.601Z,2.07
2023-01-03T05:48:24.571Z,2.08
2023-01-03T05:49:24.559Z,2.08
2023-01-03T05:50:24.549Z,2.12
2023-01-03T05:51:24.539Z,2.12
2023-01-03T05:52:24.525Z,2.18
2023-01-03T05:53:24.531Z,2.22
2023-01-03T05:54:24.503Z,2.20
2023-01-03T05:55:24.506Z,2.18
2023-01-03T05:56:24.482Z,2.18
2023-01-03T05:57:24.467Z,2.18
2023-01-03T05:58:24.618Z,2.15
2023-01-03T05:59:24.448Z,2.09
2023-01-03T06:00:24.557Z,2.07
2023-01-03T06:01:24.452Z,2.02
2023-01-03T06:02:24.500Z,1.98
2023-01-03T06:03:24.399Z,1.92
2023-01-03T06:04:24.525Z,1.86
2023-01-03T06:05:24.390Z,1.86
2023-01-03T06:06:24.368Z,1.86
2023-01-03T06:07:24.358Z,1.90
2023-01-03T06:08:24.345Z,1.93
2023-01-03T06:09:24.330Z,2.00
2023-01-03T06:10:24.324Z,2.00
2023-01-03T06:11:24.327Z,2.00
2023-01-03T06:12:24.302Z,1.93
2023-01-03T06:13:24.286Z,1.98
2023-01-03T06:14:24.275Z,2.00
2023-01-03T06:15:24.279Z,1.98
2023-01-03T06:16:25.041Z,2.02
2023-01-03T06:17:24.364Z,2.08
2023-01-03T06:18:24.232Z,2.02
2023-01-03T06:19:24.219Z,2.02
2023-01-03T06:20:24.209Z,2.08
2023-01-03T06:21:24.202Z,2.07
2023-01-03T06:22:24.195Z,2.09
2023-01-03T06:23:24.177Z,2.09
2023-01-03T06:24:24.163Z,2.19
2023-01-03T06:25:24.154Z,2.25
2023-01-03T06:26:24.152Z,2.26
2023-01-03T06:27:24.127Z,2.32
2023-01-03T06:28:24.120Z,2.37
2023-01-03T06:29:24.108Z,2.41
2023-01-03T06:30:24.097Z,2.44
2023-01-03T06:31:24.193Z,2.43
2023-01-03T06:32:24.113Z,2.43
2023-01-03T06:33:24.060Z,2.48
2023-01-03T06:34:24.046Z,2.53
2023-01-03T06:35:24.049Z,2.58
2023-01-03T06:36:24.052Z,2.56
2023-01-03T06:37:24.015Z,2.59
2023-01-03T06:38:24.000Z,2.59
2023-01-03T06:39:23.998Z,2.61
2023-01-03T06:40:23.983Z,2.66
2023-01-03T06:41:23.969Z,2.68
2023-01-03T06:42:23.958Z,2.69
2023-01-03T06:43:23.960Z,2.69
2023-01-03T06:44:23.948Z,2.69
2023-01-03T06:45:23.928Z,2.71
2023-01-03T06:46:24.002Z,2.76
2023-01-03T06:47:23.907Z,2.77
2023-01-03T06:48:23.932Z,2.84
2023-01-03T06:49:23.883Z,2.89
2023-01-03T06:50:23.871Z,2.92
2023-01-03T06:51:23.866Z,2.95
2023-01-03T06:52:23.850Z,2.94
2023-01-03T06:53:23.855Z,2.98
2023-01-03T06:54:23.828Z,3.01
2023-01-03T06:55:23.832Z,2.99
2023-01-03T06:56:23.810Z,2.97
2023-01-03T06:57:25.903Z,3.02
2023-01-03T06:58:23.817Z,3.02
2023-01-03T06:59:23.787Z,3.01
2023-01-03T07:00:23.765Z,2.99
2023-01-03T07:01:23.917Z,3.01
2023-01-03T07:02:23.911Z,3.01
2023-01-03T07:03:23.737Z,3.05
2023-01-03T07:04:23.853Z,3.07
2023-01-03T07:05:23.712Z,3.08
2023-01-03T07:06:23.695Z,3.05
2023-01-03T07:07:23.687Z,3.02
2023-01-03T07:08:23.680Z,3.02
2023-01-03T07:09:23.666Z,3.02
2023-01-03T07:10:23.652Z,3.04
2023-01-03T07:11:23.660Z,3.07
2023-01-03T07:12:23.645Z,3.10
2023-01-03T07:13:23.640Z,3.13
2023-01-03T07:14:23.619Z,3.15
2023-01-03T07:15:23.600Z,3.17
2023-01-03T07:16:23.710Z,3.17
2023-01-03T07:17:23.581Z,3.20
2023-01-03T07:18:23.566Z,3.23
2023-01-03T07:19:23.557Z,3.25
2023-01-03T07:20:23.585Z,3.26
2023-01-03T07:21:23.539Z,3.26
2023-01-03T07:22:23.528Z,3.23
2023-01-03T07:23:23.525Z,3.25
2023-01-03T07:24:23.506Z,3.23
2023-01-03T07:25:23.492Z,3.23
2023-01-03T07:26:23.481Z,3.22
2023-01-03T07:27:23.468Z,3.25
2023-01-03T07:28:23.459Z,3.28
2023-01-03T07:29:23.452Z,3.28
2023-01-03T07:30:23.434Z,3.30
2023-01-03T07:31:23.468Z,3.30
2023-01-03T07:32:23.412Z,3.31
2023-01-03T07:33:23.411Z,3.33
2023-01-03T07:34:23.392Z,3.28
2023-01-03T07:35:23.380Z,3.30
2023-01-03T07:36:23.508Z,3.28
2023-01-03T07:37:23.359Z,3.23
2023-01-03T07:38:23.365Z,3.28
2023-01-03T07:39:23.339Z,3.28
2023-01-03T07:40:23.326Z,3.33
2023-01-03T07:41:23.312Z,3.37
2023-01-03T07:42:23.300Z,3.44
2023-01-03T07:43:23.300Z,3.46
2023-01-03T07:44:23.299Z,3.49
2023-01-03T07:45:23.269Z,3.50
2023-01-03T07:46:23.365Z,3.53
2023-01-03T07:47:23.261Z,3.56
2023-01-03T07:48:23.249Z,3.57
2023-01-03T07:49:23.267Z,3.60
2023-01-03T07:50:23.213Z,3.64
2023-01-03T07:51:23.217Z,3.67
2023-01-03T07:52:23.220Z,3.64
2023-01-03T07:53:23.182Z,3.68
2023-01-03T07:54:23.231Z,3.67
2023-01-03T07:55:23.164Z,3.71
2023-01-03T07:56:23.148Z,3.72
2023-01-03T07:57:23.148Z,3.74
2023-01-03T07:58:23.125Z,3.74
2023-01-03T07:59:23.115Z,3.75
2023-01-03T08:00:23.105Z,3.75
2023-01-03T08:01:23.258Z,3.78
2023-01-03T08:02:23.248Z,3.80
2023-01-03T08:03:23.072Z,3.77
2023-01-03T08:04:23.176Z,3.80
2023-01-03T08:05:23.054Z,3.80
2023-01-03T08:06:23.043Z,3.81
2023-01-03T08:07:23.038Z,3.82
2023-01-03T08:08:23.043Z,3.88
2023-01-03T08:09:23.025Z,3.88
2023-01-03T08:10:22.992Z,3.89
2023-01-03T08:11:22.985Z,3.93
2023-01-03T08:12:22.971Z,3.93
2023-01-03T08:13:22.962Z,3.95
2023-01-03T08:14:26.138Z,3.98
2023-01-03T08:15:22.945Z,4.04
2023-01-03T08:16:23.025Z,4.08
2023-01-03T08:17:22.925Z,4.08
2023-01-03T08:18:22.912Z,4.11
2023-01-03T08:19:22.899Z,4.10
2023-01-03T08:20:22.884Z,4.13
2023-01-03T08:21:22.876Z,4.14
2023-01-03T08:22:22.870Z,4.16
2023-01-03T08:23:22.855Z,4.17
2023-01-03T08:24:22.864Z,4.21
2023-01-03T08:25:22.833Z,4.20
2023-01-03T08:26:22.821Z,4.18
2023-01-03T08:27:22.811Z,4.21
2023-01-03T08:28:22.801Z,4.24
2023-01-03T08:29:22.864Z,4.26
2023-01-03T08:30:22.777Z,4.28
2023-01-03T08:31:22.944Z,4.29
2023-01-03T08:32:22.759Z,4.31
2023-01-03T08:33:22.746Z,4.31
2023-01-03T08:34:29.319Z,4.31
2023-01-03T08:35:23.751Z,4.34
2023-01-03T08:36:22.717Z,4.36
2023-01-03T08:37:22.703Z,4.36
2023-01-03T08:38:22.695Z,4.38
2023-01-03T08:39:22.695Z,4.42
2023-01-03T08:40:22.693Z,4.44
2023-01-03T08:41:22.667Z,4.43
2023-01-03T08:42:22.652Z,4.46
2023-01-03T08:43:22.638Z,4.46
2023-01-03T08:44:22.627Z,4.47
2023-01-03T08:45:22.620Z,4.47
2023-01-03T08:46:22.920Z,4.49
2023-01-03T08:47:22.597Z,4.46
2023-01-03T08:48:22.578Z,4.50
2023-01-03T08:49:22.581Z,4.50
2023-01-03T08:50:22.566Z,4.50
2023-01-03T08:51:22.554Z,4.53
2023-01-03T08:52:22.540Z,4.54
2023-01-03T08:53:22.526Z,4.57
2023-01-03T08:54:22.516Z,4.62
2023-01-03T08:55:22.513Z,4.65
2023-01-03T08:56:22.543Z,4.69
2023-01-03T08:57:22.529Z,4.69
2023-01-03T08:58:22.727Z,4.77
2023-01-03T08:59:22.559Z,4.80
2023-01-03T09:00:22.452Z,4.79
2023-01-03T09:01:22.522Z,4.75
2023-01-03T09:02:22.653Z,4.72
2023-01-03T09:03:22.570Z,4.68
2023-01-03T09:04:22.402Z,4.65
2023-01-03T09:05:22.394Z,4.59
2023-01-03T09:06:22.382Z,4.54
2023-01-03T09:07:22.370Z,4.53
2023-01-03T09:08:22.360Z,4.49
2023-01-03T09:09:22.362Z,4.47
2023-01-03T09:10:22.343Z,4.44
2023-01-03T09:11:22.333Z,4.42
2023-01-03T09:12:22.383Z,4.39
2023-01-03T09:13:22.330Z,4.36
2023-01-03T09:14:22.299Z,4.35
2023-01-03T09:15:22.291Z,4.34
2023-01-03T09:16:22.386Z,4.38
2023-01-03T09:17:22.267Z,4.38
2023-01-03T09:18:22.250Z,4.42
2023-01-03T09:19:22.245Z,4.39
2023-01-03T09:20:22.360Z,4.42
2023-01-03T09:21:22.221Z,4.44
2023-01-03T09:22:22.206Z,4.49
2023-01-03T09:23:22.213Z,4.50
2023-01-03T09:24:22.192Z,4.49
2023-01-03T09:25:22.172Z,4.49
2023-01-03T09:26:22.160Z,4.47
2023-01-03T09:27:22.157Z,4.49
2023-01-03T09:28:22.161Z,4.51
2023-01-03T09:29:22.130Z,4.53
2023-01-03T09:30:22.209Z,4.54
2023-01-03T09:31:22.147Z,4.53
2023-01-03T09:32:22.200Z,4.50
2023-01-03T09:33:22.084Z,4.47
2023-01-03T09:34:22.072Z,4.49
2023-01-03T09:35:22.071Z,4.47
2023-01-03T09:36:22.060Z,4.50
2023-01-03T09:37:22.062Z,4.53
2023-01-03T09:38:22.031Z,4.54
2023-01-03T09:39:22.018Z,4.56
2023-01-03T09:40:22.067Z,4.56
2023-01-03T09:41:22.039Z,4.57
2023-01-03T09:42:21.985Z,4.64
2023-01-03T09:43:25.512Z,4.65
2023-01-03T09:44:21.991Z,4.71
2023-01-03T09:45:21.957Z,4.86
2023-01-03T09:46:22.086Z,4.93
2023-01-03T09:47:22.129Z,5.04
2023-01-03T09:48:21.925Z,5.17
2023-01-03T09:49:21.953Z,5.09
2023-01-03T09:51:05.327Z,5.23
2023-01-03T09:51:29.428Z,5.63
2023-01-03T09:52:22.907Z,5.96
2023-01-03T09:53:21.871Z,5.75
2023-01-03T09:54:21.853Z,5.59
2023-01-03T09:55:21.857Z,6.05
2023-01-03T09:56:21.859Z,6.06
2023-01-03T09:57:28.145Z,6.54
2023-01-03T09:58:21.807Z,6.36
2023-01-03T09:59:21.800Z,6.13
2023-01-03T10:00:21.929Z,6.28
2023-01-03T10:01:22.167Z,6.58
2023-01-03T10:02:21.860Z,6.48
2023-01-03T10:03:21.806Z,6.45
2023-01-03T10:04:21.742Z,6.28
2023-01-03T10:05:21.734Z,6.57
2023-01-03T10:06:21.743Z,6.39
2023-01-03T10:07:21.733Z,6.43
2023-01-03T10:08:21.711Z,6.38
2023-01-03T10:09:21.693Z,5.96
2023-01-03T10:10:21.674Z,5.65
2023-01-03T10:11:21.665Z,5.62
2023-01-03T10:12:21.680Z,5.48
2023-01-03T10:13:21.652Z,5.35
2023-01-03T10:14:21.632Z,5.11
2023-01-03T10:15:21.626Z,4.99
2023-01-03T10:16:21.713Z,4.99
2023-01-03T10:17:21.608Z,4.86
2023-01-03T10:18:21.587Z,4.77
2023-01-03T10:19:21.579Z,4.71
2023-01-03T10:20:23.253Z,4.68
2023-01-03T10:21:21.582Z,4.65
2023-01-03T10:22:21.606Z,4.67
2023-01-03T10:23:21.544Z,4.67
2023-01-03T10:24:21.522Z,4.68
2023-01-03T10:25:21.530Z,4.71
2023-01-03T10:26:21.504Z,4.79
2023-01-03T10:27:21.493Z,4.88
2023-01-03T10:28:21.486Z,4.97
2023-01-03T10:29:21.491Z,5.01
2023-01-03T10:30:21.463Z,4.97
2023-01-03T10:31:21.479Z,4.94
2023-01-03T10:32:21.534Z,4.94
2023-01-03T10:33:21.429Z,4.93
2023-01-03T10:34:21.412Z,4.90
2023-01-03T10:35:21.453Z,4.97
2023-01-03T10:36:21.394Z,5.02
2023-01-03T10:37:21.403Z,5.06
2023-01-03T10:38:21.374Z,5.11
2023-01-03T10:39:21.382Z,5.11
2023-01-03T10:40:21.382Z,5.11
2023-01-03T10:41:21.368Z,5.17
2023-01-03T10:42:21.348Z,5.22
2023-01-03T10:43:21.353Z,5.23
2023-01-03T10:44:21.308Z,5.26
2023-01-03T10:45:21.318Z,5.29
2023-01-03T10:46:21.373Z,5.32
2023-01-03T10:47:21.313Z,5.33
2023-01-03T10:48:21.341Z,5.38
2023-01-03T10:49:30.168Z,5.35
2023-01-03T10:50:22.285Z,5.37
2023-01-03T10:51:21.330Z,5.27
2023-01-03T10:52:21.228Z,5.32
2023-01-03T10:53:21.208Z,5.35
2023-01-03T10:54:21.200Z,5.33
2023-01-03T10:55:21.186Z,5.33
2023-01-03T10:56:21.178Z,5.30
2023-01-03T10:57:21.174Z,5.32
2023-01-03T10:58:21.156Z,5.35
2023-01-03T10:59:21.139Z,5.33
2023-01-03T11:00:21.128Z,5.40
2023-01-03T11:01:21.343Z,5.38
2023-01-03T11:02:21.428Z,5.38
2023-01-03T11:03:21.148Z,5.41
2023-01-03T11:04:21.121Z,5.45
2023-01-03T11:05:21.088Z,5.45
2023-01-03T11:06:21.328Z,5.51
2023-01-03T11:07:21.325Z,5.58
2023-01-03T11:08:21.213Z,5.62
2023-01-03T11:09:21.330Z,5.67
2023-01-03T11:10:21.023Z,5.69
2023-01-03T11:11:21.013Z,5.73
2023-01-03T11:12:21.003Z,5.75
2023-01-03T11:13:20.982Z,5.78
2023-01-03T11:14:20.975Z,5.81
2023-01-03T11:15:20.997Z,5.83
2023-01-03T11:16:21.014Z,5.75
2023-01-03T11:17:20.955Z,5.80
2023-01-03T11:18:20.936Z,5.83
2023-01-03T11:19:20.923Z,5.85
2023-01-03T11:20:20.940Z,5.83
2023-01-03T11:21:20.895Z,5.83
2023-01-03T11:22:20.890Z,5.81
2023-01-03T11:23:20.873Z,5.81
2023-01-03T11:24:20.867Z,5.84
2023-01-03T11:25:20.857Z,5.83
2023-01-03T11:26:20.842Z,5.85
2023-01-03T11:27:20.830Z,5.85
2023-01-03T11:28:20.821Z,5.88
2023-01-03T11:29:20.809Z,5.92
2023-01-03T11:30:20.804Z,5.96
2023-01-03T11:31:20.861Z,5.95
2023-01-03T11:32:20.809Z,5.96
2023-01-03T11:33:27.228Z,5.99
2023-01-03T11:34:20.760Z,6.08
2023-01-03T11:35:23.256Z,6.11
2023-01-03T11:36:20.761Z,6.16
2023-01-03T11:37:20.733Z,6.16
2023-01-03T11:38:20.722Z,6.19
2023-01-03T11:39:26.559Z,6.20
2023-01-03T11:40:21.722Z,6.19
2023-01-03T11:41:20.679Z,6.14
2023-01-03T11:42:20.672Z,6.11
2023-01-03T11:43:20.654Z,6.10
2023-01-03T11:44:20.658Z,6.13
2023-01-03T11:45:20.635Z,6.16
2023-01-03T11:46:20.735Z,6.14
2023-01-03T11:47:20.678Z,6.17
2023-01-03T11:48:20.602Z,6.19
2023-01-03T11:49:20.694Z,6.19
2023-01-03T11:50:20.695Z,6.21
2023-01-03T11:51:20.678Z,6.28
2023-01-03T11:52:20.630Z,6.38
2023-01-03T11:53:20.596Z,6.46
2023-01-03T11:54:20.656Z,6.50
2023-01-03T11:55:20.692Z,6.48
2023-01-03T11:56:20.514Z,6.43
2023-01-03T11:57:20.521Z,6.40
2023-01-03T11:58:20.494Z,6.42
2023-01-03T11:59:20.478Z,6.45
2023-01-03T12:00:20.474Z,6.48
2023-01-03T12:01:20.494Z,6.54
2023-01-03T12:02:20.586Z,6.55
2023-01-03T12:03:20.506Z,6.50
2023-01-03T12:04:20.489Z,6.43
2023-01-03T12:05:20.415Z,6.46
2023-01-03T12:06:23.680Z,6.53
2023-01-03T12:07:48.934Z,6.55
2023-01-03T12:08:21.433Z,6.51
2023-01-03T12:09:20.393Z,6.48
2023-01-03T12:10:20.362Z,6.48
2023-01-03T12:11:20.348Z,6.50
2023-01-03T12:12:20.351Z,6.51
2023-01-03T12:13:25.233Z,6.57
2023-01-03T12:14:21.345Z,6.60
2023-01-03T12:15:20.305Z,6.55
2023-01-03T12:16:20.372Z,6.48
2023-01-03T12:17:20.283Z,6.36
2023-01-03T12:18:20.274Z,6.25
2023-01-03T12:19:20.276Z,6.20
2023-01-03T12:20:20.283Z,6.10
2023-01-03T12:21:20.256Z,6.06
2023-01-03T12:22:20.229Z,6.05
2023-01-03T12:23:20.217Z,6.05
2023-01-03T12:24:20.231Z,6.06
2023-01-03T12:25:20.196Z,6.13
2023-01-03T12:26:20.190Z,6.21
2023-01-03T12:27:20.176Z,6.30
2023-01-03T12:28:20.169Z,6.33
2023-01-03T12:29:20.155Z,6.40
2023-01-03T12:30:20.151Z,6.46
2023-01-03T12:31:20.216Z,6.46
2023-01-03T12:32:20.133Z,6.53
2023-01-03T12:33:20.123Z,6.53
2023-01-03T12:34:20.112Z,6.55
2023-01-03T12:35:20.087Z,6.54
2023-01-03T12:36:20.094Z,6.64
2023-01-03T12:37:20.061Z,6.69
2023-01-03T12:38:20.055Z,6.81
2023-01-03T12:39:20.045Z,6.87
2023-01-03T12:40:20.056Z,6.86
2023-01-03T12:41:20.022Z,6.81
2023-01-03T12:42:20.017Z,6.76
2023-01-03T12:43:20.001Z,6.69
2023-01-03T12:44:20.003Z,6.64
2023-01-03T12:45:19.979Z,6.58
2023-01-03T12:46:20.129Z,6.57
2023-01-03T12:47:20.044Z,6.57
2023-01-03T12:48:19.951Z,6.55
2023-01-03T12:49:19.933Z,6.57
2023-01-03T12:50:19.923Z,6.57
2023-01-03T12:51:19.914Z,6.54
2023-01-03T12:52:19.904Z,6.54
2023-01-03T12:53:19.909Z,6.54
2023-01-03T12:54:19.894Z,6.57
2023-01-03T12:55:19.908Z,6.55
2023-01-03T12:56:19.893Z,6.57
2023-01-03T12:57:19.863Z,6.61
2023-01-03T12:58:19.838Z,6.63
2023-01-03T12:59:19.828Z,6.63
2023-01-03T13:00:19.822Z,6.65
2023-01-03T13:01:19.972Z,6.69
2023-01-03T13:02:20.034Z,6.68
2023-01-03T13:03:19.910Z,6.69
2023-01-03T13:04:23.812Z,6.69
2023-01-03T13:05:19.760Z,6.71
2023-01-03T13:06:19.750Z,6.71
2023-01-03T13:07:19.741Z,6.68
2023-01-03T13:08:19.755Z,6.69
2023-01-03T13:09:19.714Z,6.63
2023-01-03T13:10:19.728Z,6.63
2023-01-03T13:11:19.696Z,6.65
2023-01-03T13:12:19.707Z,6.68
2023-01-03T13:13:19.687Z,6.69
2023-01-03T13:14:19.707Z,6.64
2023-01-03T13:15:19.650Z,6.65
2023-01-03T13:16:19.689Z,6.65
2023-01-03T13:17:19.629Z,6.68
2023-01-03T13:18:19.646Z,6.69